sensor_id;sensor_type;location;lat;lon;timestamp;P1;durP1;ratioP1;P2;durP2;ratioP2
44116;SDS011;29781;49.480;8.512;2023-04-25T00:01:38;3.30;;;3.10;;
44116;SDS011;29781;49.480;8.512;2023-04-25T00:04:03;3.30;;;3.00;;
44116;SDS011;29781;49.480;8.512;2023-04-25T00:06:31;3.40;;;3.10;;
44116;SDS011;29781;49.480;8.512;2023-04-25T00:08:57;5.13;;;3.35;;
44116;SDS011;29781;49.480;8.512;2023-04-25T00:11:23;3.75;;;3.40;;
44116;SDS011;29781;49.480;8.512;2023-04-25T00:13:49;3.92;;;3.53;;
44116;SDS011;29781;49.480;8.512;2023-04-25T00:16:15;3.30;;;3.00;;
44116;SDS011;29781;49.480;8.512;2023-04-25T00:18:41;3.65;;;3.03;;
44116;SDS011;29781;49.480;8.512;2023-04-25T00:21:07;3.80;;;3.38;;
44116;SDS011;29781;49.480;8.512;2023-04-25T00:23:33;3.58;;;3.28;;
44116;SDS011;29781;49.480;8.512;2023-04-25T00:26:01;3.30;;;3.00;;
44116;SDS011;29781;49.480;8.512;2023-04-25T00:28:27;3.20;;;2.90;;
44116;SDS011;29781;49.480;8.512;2023-04-25T00:30:52;3.40;;;3.10;;
44116;SDS011;29781;49.480;8.512;2023-04-25T00:33:18;4.35;;;3.35;;
44116;SDS011;29781;49.480;8.512;2023-04-25T00:35:43;8.68;;;3.55;;
44116;SDS011;29781;49.480;8.512;2023-04-25T00:38:09;3.95;;;3.58;;
44116;SDS011;29781;49.480;8.512;2023-04-25T00:40:35;3.08;;;2.88;;
44116;SDS011;29781;49.480;8.512;2023-04-25T00:43:00;3.58;;;3.28;;
44116;SDS011;29781;49.480;8.512;2023-04-25T00:45:29;3.40;;;3.10;;
44116;SDS011;29781;49.480;8.512;2023-04-25T00:47:55;3.90;;;3.50;;
44116;SDS011;29781;49.480;8.512;2023-04-25T00:50:21;3.85;;;3.20;;
44116;SDS011;29781;49.480;8.512;2023-04-25T00:52:47;3.90;;;3.45;;
44116;SDS011;29781;49.480;8.512;2023-04-25T00:55:12;3.83;;;3.50;;
44116;SDS011;29781;49.480;8.512;2023-04-25T00:57:38;3.60;;;3.30;;
44116;SDS011;29781;49.480;8.512;2023-04-25T01:00:06;3.58;;;3.28;;
44116;SDS011;29781;49.480;8.512;2023-04-25T01:02:34;3.38;;;3.08;;
44116;SDS011;29781;49.480;8.512;2023-04-25T01:05:01;3.17;;;2.97;;
44116;SDS011;29781;49.480;8.512;2023-04-25T01:07:27;3.03;;;2.83;;
44116;SDS011;29781;49.480;8.512;2023-04-25T01:09:53;3.50;;;3.20;;
44116;SDS011;29781;49.480;8.512;2023-04-25T01:12:19;3.50;;;3.20;;
44116;SDS011;29781;49.480;8.512;2023-04-25T01:14:45;3.38;;;3.08;;
44116;SDS011;29781;49.480;8.512;2023-04-25T01:17:11;3.90;;;3.60;;
44116;SDS011;29781;49.480;8.512;2023-04-25T01:19:37;3.42;;;3.13;;
44116;SDS011;29781;49.480;8.512;2023-04-25T01:22:03;3.58;;;3.28;;
44116;SDS011;29781;49.480;8.512;2023-04-25T01:24:29;4.63;;;3.63;;
44116;SDS011;29781;49.480;8.512;2023-04-25T01:26:57;4.03;;;3.40;;
44116;SDS011;29781;49.480;8.512;2023-04-25T01:29:25;3.85;;;3.50;;
44116;SDS011;29781;49.480;8.512;2023-04-25T01:31:52;4.75;;;3.53;;
44116;SDS011;29781;49.480;8.512;2023-04-25T01:34:17;4.38;;;3.90;;
44116;SDS011;29781;49.480;8.512;2023-04-25T01:36:43;3.78;;;3.42;;
44116;SDS011;29781;49.480;8.512;2023-04-25T01:39:09;4.65;;;3.92;;
44116;SDS011;29781;49.480;8.512;2023-04-25T01:41:35;5.65;;;4.35;;
44116;SDS011;29781;49.480;8.512;2023-04-25T01:44:00;4.28;;;3.92;;
44116;SDS011;29781;49.480;8.512;2023-04-25T01:46:27;5.70;;;4.28;;
44116;SDS011;29781;49.480;8.512;2023-04-25T01:48:53;6.45;;;4.15;;
44116;SDS011;29781;49.480;8.512;2023-04-25T01:51:18;5.10;;;4.13;;
44116;SDS011;29781;49.480;8.512;2023-04-25T01:53:44;4.40;;;4.00;;
44116;SDS011;29781;49.480;8.512;2023-04-25T01:56:10;4.47;;;3.97;;
44116;SDS011;29781;49.480;8.512;2023-04-25T01:58:35;5.50;;;4.50;;
44116;SDS011;29781;49.480;8.512;2023-04-25T02:01:01;6.60;;;4.30;;
44116;SDS011;29781;49.480;8.512;2023-04-25T02:03:27;4.82;;;4.30;;
44116;SDS011;29781;49.480;8.512;2023-04-25T02:05:52;5.63;;;4.70;;
44116;SDS011;29781;49.480;8.512;2023-04-25T02:08:18;5.50;;;5.00;;
44116;SDS011;29781;49.480;8.512;2023-04-25T02:10:43;7.68;;;5.38;;
44116;SDS011;29781;49.480;8.512;2023-04-25T02:13:09;7.90;;;5.90;;
44116;SDS011;29781;49.480;8.512;2023-04-25T02:15:35;8.10;;;6.10;;
44116;SDS011;29781;49.480;8.512;2023-04-25T02:18:00;7.97;;;6.53;;
44116;SDS011;29781;49.480;8.512;2023-04-25T02:20:27;7.65;;;6.75;;
44116;SDS011;29781;49.480;8.512;2023-04-25T02:22:53;10.02;;;7.25;;
44116;SDS011;29781;49.480;8.512;2023-04-25T02:25:19;11.15;;;6.88;;
44116;SDS011;29781;49.480;8.512;2023-04-25T02:27:45;8.20;;;6.95;;
44116;SDS011;29781;49.480;8.512;2023-04-25T02:30:15;7.78;;;6.97;;
44116;SDS011;29781;49.480;8.512;2023-04-25T02:32:40;10.77;;;7.60;;
44116;SDS011;29781;49.480;8.512;2023-04-25T02:35:06;8.05;;;7.20;;
44116;SDS011;29781;49.480;8.512;2023-04-25T02:37:32;8.35;;;7.22;;
44116;SDS011;29781;49.480;8.512;2023-04-25T02:39:59;9.38;;;7.97;;
44116;SDS011;29781;49.480;8.512;2023-04-25T02:42:25;9.57;;;7.35;;
44116;SDS011;29781;49.480;8.512;2023-04-25T02:44:51;10.88;;;7.78;;
44116;SDS011;29781;49.480;8.512;2023-04-25T02:47:16;9.55;;;7.95;;
44116;SDS011;29781;49.480;8.512;2023-04-25T02:49:42;8.52;;;7.70;;
44116;SDS011;29781;49.480;8.512;2023-04-25T02:52:07;9.73;;;8.30;;
44116;SDS011;29781;49.480;8.512;2023-04-25T02:54:34;10.73;;;7.90;;
44116;SDS011;29781;49.480;8.512;2023-04-25T02:56:59;11.05;;;8.15;;
44116;SDS011;29781;49.480;8.512;2023-04-25T02:59:27;7.80;;;7.00;;
44116;SDS011;29781;49.480;8.512;2023-04-25T03:01:52;8.68;;;6.93;;
44116;SDS011;29781;49.480;8.512;2023-04-25T03:04:18;8.77;;;6.80;;
44116;SDS011;29781;49.480;8.512;2023-04-25T03:06:44;8.40;;;6.70;;
44116;SDS011;29781;49.480;8.512;2023-04-25T03:09:10;7.90;;;7.07;;
44116;SDS011;29781;49.480;8.512;2023-04-25T03:11:36;10.68;;;7.72;;
44116;SDS011;29781;49.480;8.512;2023-04-25T03:14:03;8.48;;;7.10;;
44116;SDS011;29781;49.480;8.512;2023-04-25T03:16:29;9.27;;;7.80;;
44116;SDS011;29781;49.480;8.512;2023-04-25T03:18:54;8.80;;;7.38;;
44116;SDS011;29781;49.480;8.512;2023-04-25T03:21:20;10.63;;;7.75;;
44116;SDS011;29781;49.480;8.512;2023-04-25T03:23:45;10.85;;;8.15;;
44116;SDS011;29781;49.480;8.512;2023-04-25T03:26:11;9.48;;;7.78;;
44116;SDS011;29781;49.480;8.512;2023-04-25T03:28:36;9.52;;;7.68;;
44116;SDS011;29781;49.480;8.512;2023-04-25T03:31:02;9.88;;;8.30;;
44116;SDS011;29781;49.480;8.512;2023-04-25T03:33:27;10.10;;;8.75;;
44116;SDS011;29781;49.480;8.512;2023-04-25T03:35:53;11.07;;;8.52;;
44116;SDS011;29781;49.480;8.512;2023-04-25T03:38:18;9.52;;;8.05;;
44116;SDS011;29781;49.480;8.512;2023-04-25T03:40:44;10.57;;;8.13;;
44116;SDS011;29781;49.480;8.512;2023-04-25T03:43:09;8.98;;;8.02;;
44116;SDS011;29781;49.480;8.512;2023-04-25T03:45:36;10.70;;;7.78;;
44116;SDS011;29781;49.480;8.512;2023-04-25T03:48:01;11.82;;;8.38;;
44116;SDS011;29781;49.480;8.512;2023-04-25T03:50:27;10.55;;;8.32;;
44116;SDS011;29781;49.480;8.512;2023-04-25T03:52:52;9.63;;;8.15;;
44116;SDS011;29781;49.480;8.512;2023-04-25T03:55:18;10.05;;;8.73;;
44116;SDS011;29781;49.480;8.512;2023-04-25T03:57:43;11.63;;;8.95;;
44116;SDS011;29781;49.480;8.512;2023-04-25T04:00:09;9.98;;;8.38;;
44116;SDS011;29781;49.480;8.512;2023-04-25T04:02:35;9.70;;;8.38;;
44116;SDS011;29781;49.480;8.512;2023-04-25T04:05:02;10.13;;;8.98;;
44116;SDS011;29781;49.480;8.512;2023-04-25T04:07:28;12.10;;;8.80;;
44116;SDS011;29781;49.480;8.512;2023-04-25T04:09:54;9.88;;;8.88;;
44116;SDS011;29781;49.480;8.512;2023-04-25T04:12:20;11.88;;;9.35;;
44116;SDS011;29781;49.480;8.512;2023-04-25T04:14:45;13.48;;;9.25;;
44116;SDS011;29781;49.480;8.512;2023-04-25T04:17:11;10.82;;;8.82;;
44116;SDS011;29781;49.480;8.512;2023-04-25T04:19:36;13.60;;;9.85;;
44116;SDS011;29781;49.480;8.512;2023-04-25T04:22:02;12.82;;;10.32;;
44116;SDS011;29781;49.480;8.512;2023-04-25T04:24:27;12.23;;;10.00;;
44116;SDS011;29781;49.480;8.512;2023-04-25T04:26:53;11.73;;;9.45;;
44116;SDS011;29781;49.480;8.512;2023-04-25T04:29:18;10.25;;;9.15;;
44116;SDS011;29781;49.480;8.512;2023-04-25T04:31:47;11.35;;;9.55;;
44116;SDS011;29781;49.480;8.512;2023-04-25T04:34:17;12.18;;;8.90;;
44116;SDS011;29781;49.480;8.512;2023-04-25T04:36:43;10.80;;;9.30;;
44116;SDS011;29781;49.480;8.512;2023-04-25T04:39:11;10.02;;;8.35;;
44116;SDS011;29781;49.480;8.512;2023-04-25T04:41:37;11.55;;;8.45;;
44116;SDS011;29781;49.480;8.512;2023-04-25T04:44:02;10.88;;;8.93;;
44116;SDS011;29781;49.480;8.512;2023-04-25T04:46:28;10.95;;;9.45;;
44116;SDS011;29781;49.480;8.512;2023-04-25T04:48:53;12.50;;;8.85;;
44116;SDS011;29781;49.480;8.512;2023-04-25T04:51:21;10.05;;;8.93;;
44116;SDS011;29781;49.480;8.512;2023-04-25T04:53:46;10.20;;;8.93;;
44116;SDS011;29781;49.480;8.512;2023-04-25T04:56:12;9.85;;;8.57;;
44116;SDS011;29781;49.480;8.512;2023-04-25T04:58:37;10.77;;;8.57;;
44116;SDS011;29781;49.480;8.512;2023-04-25T05:01:03;11.35;;;8.50;;
44116;SDS011;29781;49.480;8.512;2023-04-25T05:03:28;9.60;;;8.15;;
44116;SDS011;29781;49.480;8.512;2023-04-25T05:05:54;12.05;;;8.23;;
44116;SDS011;29781;49.480;8.512;2023-04-25T05:08:20;12.10;;;8.60;;
44116;SDS011;29781;49.480;8.512;2023-04-25T05:10:45;8.82;;;7.88;;
44116;SDS011;29781;49.480;8.512;2023-04-25T05:13:11;9.52;;;8.52;;
44116;SDS011;29781;49.480;8.512;2023-04-25T05:15:36;9.20;;;8.10;;
44116;SDS011;29781;49.480;8.512;2023-04-25T05:18:02;8.98;;;8.02;;
44116;SDS011;29781;49.480;8.512;2023-04-25T05:20:27;10.07;;;7.95;;
44116;SDS011;29781;49.480;8.512;2023-04-25T05:22:53;10.18;;;9.10;;
44116;SDS011;29781;49.480;8.512;2023-04-25T05:25:19;10.60;;;8.85;;
44116;SDS011;29781;49.480;8.512;2023-04-25T05:27:44;11.02;;;9.75;;
44116;SDS011;29781;49.480;8.512;2023-04-25T05:30:10;11.48;;;9.23;;
44116;SDS011;29781;49.480;8.512;2023-04-25T05:32:35;12.93;;;10.35;;
44116;SDS011;29781;49.480;8.512;2023-04-25T05:35:01;14.63;;;10.85;;
44116;SDS011;29781;49.480;8.512;2023-04-25T05:37:27;11.80;;;10.45;;
44116;SDS011;29781;49.480;8.512;2023-04-25T05:39:55;14.25;;;10.70;;
44116;SDS011;29781;49.480;8.512;2023-04-25T05:42:21;12.75;;;10.60;;
44116;SDS011;29781;49.480;8.512;2023-04-25T05:44:46;14.35;;;11.48;;
44116;SDS011;29781;49.480;8.512;2023-04-25T05:47:12;13.05;;;10.93;;
44116;SDS011;29781;49.480;8.512;2023-04-25T05:49:37;14.60;;;10.68;;
44116;SDS011;29781;49.480;8.512;2023-04-25T05:52:03;13.90;;;10.73;;
44116;SDS011;29781;49.480;8.512;2023-04-25T05:54:28;13.90;;;11.02;;
44116;SDS011;29781;49.480;8.512;2023-04-25T05:56:55;12.10;;;10.27;;
44116;SDS011;29781;49.480;8.512;2023-04-25T05:59:21;11.88;;;10.10;;
44116;SDS011;29781;49.480;8.512;2023-04-25T06:01:47;14.20;;;10.55;;
44116;SDS011;29781;49.480;8.512;2023-04-25T06:04:12;17.05;;;11.25;;
44116;SDS011;29781;49.480;8.512;2023-04-25T06:06:38;13.05;;;10.48;;
44116;SDS011;29781;49.480;8.512;2023-04-25T06:09:03;11.25;;;9.38;;
44116;SDS011;29781;49.480;8.512;2023-04-25T06:11:29;10.02;;;8.10;;
44116;SDS011;29781;49.480;8.512;2023-04-25T06:13:55;11.45;;;8.98;;
44116;SDS011;29781;49.480;8.512;2023-04-25T06:16:20;11.27;;;8.70;;
44116;SDS011;29781;49.480;8.512;2023-04-25T06:18:46;11.52;;;9.20;;
44116;SDS011;29781;49.480;8.512;2023-04-25T06:21:11;12.75;;;9.00;;
44116;SDS011;29781;49.480;8.512;2023-04-25T06:23:37;10.77;;;9.25;;
44116;SDS011;29781;49.480;8.512;2023-04-25T06:26:02;13.70;;;8.32;;
44116;SDS011;29781;49.480;8.512;2023-04-25T06:28:28;11.23;;;8.45;;
44116;SDS011;29781;49.480;8.512;2023-04-25T06:30:54;13.32;;;8.93;;
44116;SDS011;29781;49.480;8.512;2023-04-25T06:33:19;10.00;;;8.43;;
44116;SDS011;29781;49.480;8.512;2023-04-25T06:35:46;11.48;;;9.50;;
44116;SDS011;29781;49.480;8.512;2023-04-25T06:38:11;11.45;;;9.52;;
44116;SDS011;29781;49.480;8.512;2023-04-25T06:40:37;11.07;;;9.43;;
44116;SDS011;29781;49.480;8.512;2023-04-25T06:43:03;12.43;;;8.88;;
44116;SDS011;29781;49.480;8.512;2023-04-25T06:45:28;13.07;;;9.45;;
44116;SDS011;29781;49.480;8.512;2023-04-25T06:47:54;12.50;;;9.50;;
44116;SDS011;29781;49.480;8.512;2023-04-25T06:50:19;13.00;;;8.90;;
44116;SDS011;29781;49.480;8.512;2023-04-25T06:52:45;14.75;;;9.40;;
44116;SDS011;29781;49.480;8.512;2023-04-25T06:55:10;14.13;;;9.32;;
44116;SDS011;29781;49.480;8.512;2023-04-25T06:57:36;14.85;;;9.43;;
44116;SDS011;29781;49.480;8.512;2023-04-25T07:00:02;13.43;;;9.50;;
44116;SDS011;29781;49.480;8.512;2023-04-25T07:02:30;14.73;;;10.07;;
44116;SDS011;29781;49.480;8.512;2023-04-25T07:04:56;15.82;;;9.95;;
44116;SDS011;29781;49.480;8.512;2023-04-25T07:07:24;14.65;;;8.98;;
44116;SDS011;29781;49.480;8.512;2023-04-25T07:09:50;16.50;;;8.63;;
44116;SDS011;29781;49.480;8.512;2023-04-25T07:12:16;11.02;;;7.53;;
44116;SDS011;29781;49.480;8.512;2023-04-25T07:14:41;13.88;;;7.60;;
44116;SDS011;29781;49.480;8.512;2023-04-25T07:17:07;13.88;;;8.30;;
44116;SDS011;29781;49.480;8.512;2023-04-25T07:19:32;14.18;;;8.15;;
44116;SDS011;29781;49.480;8.512;2023-04-25T07:21:58;16.75;;;7.32;;
44116;SDS011;29781;49.480;8.512;2023-04-25T07:24:24;14.70;;;6.88;;
44116;SDS011;29781;49.480;8.512;2023-04-25T07:26:49;13.73;;;7.90;;
44116;SDS011;29781;49.480;8.512;2023-04-25T07:29:15;14.52;;;7.63;;
44116;SDS011;29781;49.480;8.512;2023-04-25T07:31:41;13.73;;;7.50;;
44116;SDS011;29781;49.480;8.512;2023-04-25T07:34:06;15.90;;;7.88;;
44116;SDS011;29781;49.480;8.512;2023-04-25T07:36:32;18.58;;;7.68;;
44116;SDS011;29781;49.480;8.512;2023-04-25T07:38:57;12.45;;;7.60;;
44116;SDS011;29781;49.480;8.512;2023-04-25T07:41:23;15.27;;;7.45;;
44116;SDS011;29781;49.480;8.512;2023-04-25T07:43:49;12.80;;;6.95;;
44116;SDS011;29781;49.480;8.512;2023-04-25T07:46:14;17.02;;;7.75;;
44116;SDS011;29781;49.480;8.512;2023-04-25T07:48:40;12.05;;;7.22;;
44116;SDS011;29781;49.480;8.512;2023-04-25T07:51:05;14.25;;;7.30;;
44116;SDS011;29781;49.480;8.512;2023-04-25T07:53:32;19.85;;;9.48;;
44116;SDS011;29781;49.480;8.512;2023-04-25T07:55:59;14.73;;;8.30;;
44116;SDS011;29781;49.480;8.512;2023-04-25T07:58:25;15.88;;;8.18;;
44116;SDS011;29781;49.480;8.512;2023-04-25T08:00:51;18.85;;;8.10;;
44116;SDS011;29781;49.480;8.512;2023-04-25T08:03:16;14.15;;;8.23;;
44116;SDS011;29781;49.480;8.512;2023-04-25T08:05:42;13.55;;;7.72;;
44116;SDS011;29781;49.480;8.512;2023-04-25T08:08:07;16.40;;;7.43;;
44116;SDS011;29781;49.480;8.512;2023-04-25T08:10:33;12.60;;;6.80;;
44116;SDS011;29781;49.480;8.512;2023-04-25T08:12:59;22.00;;;9.25;;
44116;SDS011;29781;49.480;8.512;2023-04-25T08:15:25;20.77;;;8.05;;
44116;SDS011;29781;49.480;8.512;2023-04-25T08:17:51;15.50;;;7.85;;
44116;SDS011;29781;49.480;8.512;2023-04-25T08:20:16;13.88;;;7.57;;
44116;SDS011;29781;49.480;8.512;2023-04-25T08:22:42;19.30;;;8.25;;
44116;SDS011;29781;49.480;8.512;2023-04-25T08:25:08;13.48;;;7.28;;
44116;SDS011;29781;49.480;8.512;2023-04-25T08:27:33;16.92;;;8.38;;
44116;SDS011;29781;49.480;8.512;2023-04-25T08:29:59;15.02;;;7.68;;
44116;SDS011;29781;49.480;8.512;2023-04-25T08:32:25;16.95;;;7.82;;
44116;SDS011;29781;49.480;8.512;2023-04-25T08:34:50;17.85;;;8.25;;
44116;SDS011;29781;49.480;8.512;2023-04-25T08:37:19;12.65;;;7.35;;
44116;SDS011;29781;49.480;8.512;2023-04-25T08:39:45;13.77;;;7.18;;
44116;SDS011;29781;49.480;8.512;2023-04-25T08:42:11;14.10;;;6.55;;
44116;SDS011;29781;49.480;8.512;2023-04-25T08:44:37;13.77;;;6.35;;
44116;SDS011;29781;49.480;8.512;2023-04-25T08:47:03;13.60;;;6.30;;
44116;SDS011;29781;49.480;8.512;2023-04-25T08:49:31;12.68;;;7.22;;
44116;SDS011;29781;49.480;8.512;2023-04-25T08:51:59;13.73;;;7.07;;
44116;SDS011;29781;49.480;8.512;2023-04-25T08:54:26;16.38;;;6.85;;
44116;SDS011;29781;49.480;8.512;2023-04-25T08:56:53;13.60;;;6.93;;
44116;SDS011;29781;49.480;8.512;2023-04-25T08:59:19;13.52;;;7.30;;
44116;SDS011;29781;49.480;8.512;2023-04-25T09:01:47;14.13;;;7.88;;
44116;SDS011;29781;49.480;8.512;2023-04-25T09:04:14;13.60;;;7.38;;
44116;SDS011;29781;49.480;8.512;2023-04-25T09:06:40;12.13;;;7.03;;
44116;SDS011;29781;49.480;8.512;2023-04-25T09:09:07;12.88;;;7.00;;
44116;SDS011;29781;49.480;8.512;2023-04-25T09:11:34;17.38;;;7.28;;
44116;SDS011;29781;49.480;8.512;2023-04-25T09:14:19;18.58;;;7.32;;
44116;SDS011;29781;49.480;8.512;2023-04-25T09:19:24;16.70;;;6.65;;
44116;SDS011;29781;49.480;8.512;2023-04-25T09:21:57;11.98;;;6.38;;
44116;SDS011;29781;49.480;8.512;2023-04-25T09:24:31;11.23;;;6.93;;
44116;SDS011;29781;49.480;8.512;2023-04-25T09:27:04;11.48;;;6.32;;
44116;SDS011;29781;49.480;8.512;2023-04-25T09:29:43;14.00;;;6.53;;
44116;SDS011;29781;49.480;8.512;2023-04-25T09:34:38;12.90;;;7.13;;
44116;SDS011;29781;49.480;8.512;2023-04-25T09:37:05;14.40;;;7.93;;
44116;SDS011;29781;49.480;8.512;2023-04-25T09:39:32;13.70;;;7.15;;
44116;SDS011;29781;49.480;8.512;2023-04-25T09:41:58;13.60;;;6.70;;
44116;SDS011;29781;49.480;8.512;2023-04-25T09:44:24;14.48;;;7.10;;
44116;SDS011;29781;49.480;8.512;2023-04-25T09:46:50;13.35;;;6.72;;
44116;SDS011;29781;49.480;8.512;2023-04-25T09:49:19;13.93;;;5.88;;
44116;SDS011;29781;49.480;8.512;2023-04-25T09:51:58;10.10;;;6.28;;
44116;SDS011;29781;49.480;8.512;2023-04-25T09:54:24;10.43;;;6.20;;
44116;SDS011;29781;49.480;8.512;2023-04-25T09:56:51;11.68;;;6.05;;
44116;SDS011;29781;49.480;8.512;2023-04-25T09:59:19;15.38;;;7.13;;
44116;SDS011;29781;49.480;8.512;2023-04-25T10:01:46;12.52;;;5.85;;
44116;SDS011;29781;49.480;8.512;2023-04-25T10:04:15;13.52;;;6.53;;
44116;SDS011;29781;49.480;8.512;2023-04-25T10:06:49;11.13;;;5.60;;
44116;SDS011;29781;49.480;8.512;2023-04-25T10:09:17;11.45;;;5.50;;
44116;SDS011;29781;49.480;8.512;2023-04-25T10:11:46;12.68;;;6.45;;
44116;SDS011;29781;49.480;8.512;2023-04-25T10:14:15;12.00;;;5.47;;
44116;SDS011;29781;49.480;8.512;2023-04-25T10:16:41;10.90;;;5.22;;
44116;SDS011;29781;49.480;8.512;2023-04-25T10:19:07;7.47;;;5.65;;
44116;SDS011;29781;49.480;8.512;2023-04-25T10:21:34;9.60;;;5.57;;
44116;SDS011;29781;49.480;8.512;2023-04-25T10:24:09;10.63;;;5.30;;
44116;SDS011;29781;49.480;8.512;2023-04-25T10:26:35;13.98;;;6.47;;
44116;SDS011;29781;49.480;8.512;2023-04-25T10:29:01;13.48;;;6.13;;
44116;SDS011;29781;49.480;8.512;2023-04-25T10:31:31;12.40;;;6.10;;
44116;SDS011;29781;49.480;8.512;2023-04-25T10:33:57;9.57;;;5.90;;
44116;SDS011;29781;49.480;8.512;2023-04-25T10:36:24;8.00;;;5.30;;
44116;SDS011;29781;49.480;8.512;2023-04-25T10:38:52;7.88;;;5.72;;
44116;SDS011;29781;49.480;8.512;2023-04-25T10:41:19;10.38;;;5.70;;
44116;SDS011;29781;49.480;8.512;2023-04-25T10:43:46;11.70;;;5.40;;
44116;SDS011;29781;49.480;8.512;2023-04-25T10:46:13;10.95;;;5.47;;
44116;SDS011;29781;49.480;8.512;2023-04-25T10:48:50;14.40;;;5.45;;
44116;SDS011;29781;49.480;8.512;2023-04-25T10:51:26;7.95;;;5.00;;
44116;SDS011;29781;49.480;8.512;2023-04-25T10:53:56;7.57;;;4.50;;
44116;SDS011;29781;49.480;8.512;2023-04-25T10:56:32;7.88;;;4.75;;
44116;SDS011;29781;49.480;8.512;2023-04-25T10:59:12;7.05;;;4.05;;
44116;SDS011;29781;49.480;8.512;2023-04-25T11:01:51;7.28;;;4.22;;
44116;SDS011;29781;49.480;8.512;2023-04-25T11:04:24;6.93;;;3.90;;
44116;SDS011;29781;49.480;8.512;2023-04-25T11:09:25;7.43;;;3.83;;
44116;SDS011;29781;49.480;8.512;2023-04-25T11:11:55;5.68;;;3.78;;
44116;SDS011;29781;49.480;8.512;2023-04-25T11:14:24;7.18;;;4.20;;
44116;SDS011;29781;49.480;8.512;2023-04-25T11:16:54;9.25;;;4.20;;
44116;SDS011;29781;49.480;8.512;2023-04-25T11:19:21;7.50;;;3.40;;
44116;SDS011;29781;49.480;8.512;2023-04-25T11:21:47;5.15;;;3.72;;
44116;SDS011;29781;49.480;8.512;2023-04-25T11:24:12;5.95;;;3.83;;
44116;SDS011;29781;49.480;8.512;2023-04-25T11:26:38;5.97;;;4.15;;
44116;SDS011;29781;49.480;8.512;2023-04-25T11:29:06;4.78;;;3.65;;
44116;SDS011;29781;49.480;8.512;2023-04-25T11:31:31;6.93;;;3.72;;
44116;SDS011;29781;49.480;8.512;2023-04-25T11:33:57;6.55;;;3.55;;
44116;SDS011;29781;49.480;8.512;2023-04-25T11:36:26;9.07;;;4.25;;
44116;SDS011;29781;49.480;8.512;2023-04-25T11:38:52;6.25;;;4.00;;
44116;SDS011;29781;49.480;8.512;2023-04-25T11:41:19;7.85;;;4.57;;
44116;SDS011;29781;49.480;8.512;2023-04-25T11:43:45;10.82;;;4.53;;
44116;SDS011;29781;49.480;8.512;2023-04-25T11:46:11;10.07;;;4.45;;
44116;SDS011;29781;49.480;8.512;2023-04-25T11:48:42;6.85;;;4.68;;
44116;SDS011;29781;49.480;8.512;2023-04-25T11:51:08;6.15;;;4.13;;
44116;SDS011;29781;49.480;8.512;2023-04-25T11:53:34;9.02;;;4.47;;
44116;SDS011;29781;49.480;8.512;2023-04-25T11:56:00;5.35;;;4.13;;
44116;SDS011;29781;49.480;8.512;2023-04-25T11:58:26;8.23;;;4.18;;
44116;SDS011;29781;49.480;8.512;2023-04-25T12:00:51;6.63;;;3.83;;
44116;SDS011;29781;49.480;8.512;2023-04-25T12:03:18;9.30;;;4.28;;
44116;SDS011;29781;49.480;8.512;2023-04-25T12:05:44;10.43;;;4.85;;
44116;SDS011;29781;49.480;8.512;2023-04-25T12:08:11;6.80;;;4.50;;
44116;SDS011;29781;49.480;8.512;2023-04-25T12:10:42;7.32;;;4.80;;
44116;SDS011;29781;49.480;8.512;2023-04-25T12:13:25;7.15;;;4.53;;
44116;SDS011;29781;49.480;8.512;2023-04-25T12:15:56;7.95;;;4.75;;
44116;SDS011;29781;49.480;8.512;2023-04-25T12:18:24;5.28;;;4.40;;
44116;SDS011;29781;49.480;8.512;2023-04-25T12:20:53;11.52;;;4.40;;
44116;SDS011;29781;49.480;8.512;2023-04-25T12:23:24;6.93;;;4.40;;
44116;SDS011;29781;49.480;8.512;2023-04-25T12:25:52;7.90;;;4.30;;
44116;SDS011;29781;49.480;8.512;2023-04-25T12:28:18;6.82;;;4.43;;
44116;SDS011;29781;49.480;8.512;2023-04-25T12:31:18;7.72;;;4.40;;
44116;SDS011;29781;49.480;8.512;2023-04-25T12:33:39;8.68;;;4.75;;
44116;SDS011;29781;49.480;8.512;2023-04-25T12:36:06;7.00;;;4.75;;
44116;SDS011;29781;49.480;8.512;2023-04-25T12:38:39;6.03;;;4.63;;
44116;SDS011;29781;49.480;8.512;2023-04-25T12:41:06;7.13;;;4.32;;
44116;SDS011;29781;49.480;8.512;2023-04-25T12:43:32;8.40;;;5.43;;
44116;SDS011;29781;49.480;8.512;2023-04-25T12:45:58;8.88;;;5.75;;
44116;SDS011;29781;49.480;8.512;2023-04-25T12:48:24;7.43;;;5.00;;
44116;SDS011;29781;49.480;8.512;2023-04-25T12:50:50;8.77;;;5.45;;
44116;SDS011;29781;49.480;8.512;2023-04-25T12:53:17;8.73;;;5.78;;
44116;SDS011;29781;49.480;8.512;2023-04-25T12:55:47;9.77;;;5.63;;
44116;SDS011;29781;49.480;8.512;2023-04-25T12:58:14;11.55;;;5.72;;
44116;SDS011;29781;49.480;8.512;2023-04-25T13:00:40;7.43;;;5.13;;
44116;SDS011;29781;49.480;8.512;2023-04-25T13:03:06;8.93;;;5.50;;
44116;SDS011;29781;49.480;8.512;2023-04-25T13:05:31;10.23;;;6.10;;
44116;SDS011;29781;49.480;8.512;2023-04-25T13:07:57;12.60;;;6.22;;
44116;SDS011;29781;49.480;8.512;2023-04-25T13:10:22;14.57;;;7.30;;
44116;SDS011;29781;49.480;8.512;2023-04-25T13:12:48;9.50;;;6.10;;
44116;SDS011;29781;49.480;8.512;2023-04-25T13:15:13;9.18;;;5.82;;
44116;SDS011;29781;49.480;8.512;2023-04-25T13:17:40;10.07;;;5.63;;
44116;SDS011;29781;49.480;8.512;2023-04-25T13:20:06;6.88;;;5.07;;
44116;SDS011;29781;49.480;8.512;2023-04-25T13:22:37;7.78;;;5.07;;
44116;SDS011;29781;49.480;8.512;2023-04-25T13:25:04;12.07;;;6.22;;
44116;SDS011;29781;49.480;8.512;2023-04-25T13:27:31;7.50;;;5.50;;
44116;SDS011;29781;49.480;8.512;2023-04-25T13:29:58;10.43;;;4.93;;
44116;SDS011;29781;49.480;8.512;2023-04-25T13:32:25;9.20;;;5.32;;
44116;SDS011;29781;49.480;8.512;2023-04-25T13:34:51;11.65;;;5.45;;
44116;SDS011;29781;49.480;8.512;2023-04-25T13:37:16;12.18;;;5.95;;
44116;SDS011;29781;49.480;8.512;2023-04-25T13:39:42;12.40;;;5.63;;
44116;SDS011;29781;49.480;8.512;2023-04-25T13:42:07;11.00;;;5.70;;
44116;SDS011;29781;49.480;8.512;2023-04-25T13:44:33;11.25;;;6.25;;
44116;SDS011;29781;49.480;8.512;2023-04-25T13:46:58;10.25;;;5.70;;
44116;SDS011;29781;49.480;8.512;2023-04-25T13:49:25;10.48;;;5.25;;
44116;SDS011;29781;49.480;8.512;2023-04-25T13:51:51;9.10;;;5.10;;
44116;SDS011;29781;49.480;8.512;2023-04-25T13:54:16;8.85;;;5.35;;
44116;SDS011;29781;49.480;8.512;2023-04-25T13:56:42;10.18;;;5.68;;
44116;SDS011;29781;49.480;8.512;2023-04-25T13:59:08;9.57;;;5.90;;
44116;SDS011;29781;49.480;8.512;2023-04-25T14:01:33;11.63;;;5.53;;
44116;SDS011;29781;49.480;8.512;2023-04-25T14:04:00;12.25;;;5.70;;
44116;SDS011;29781;49.480;8.512;2023-04-25T14:06:26;12.48;;;5.93;;
44116;SDS011;29781;49.480;8.512;2023-04-25T14:08:53;7.80;;;5.28;;
44116;SDS011;29781;49.480;8.512;2023-04-25T14:11:19;11.10;;;5.95;;
44116;SDS011;29781;49.480;8.512;2023-04-25T14:13:45;12.15;;;5.72;;
44116;SDS011;29781;49.480;8.512;2023-04-25T14:16:10;11.68;;;5.70;;
44116;SDS011;29781;49.480;8.512;2023-04-25T14:18:36;13.63;;;5.63;;
44116;SDS011;29781;49.480;8.512;2023-04-25T14:21:02;10.38;;;4.80;;
44116;SDS011;29781;49.480;8.512;2023-04-25T14:23:27;9.10;;;4.80;;
44116;SDS011;29781;49.480;8.512;2023-04-25T14:25:53;7.78;;;4.60;;
44116;SDS011;29781;49.480;8.512;2023-04-25T14:28:19;8.60;;;4.65;;
44116;SDS011;29781;49.480;8.512;2023-04-25T14:30:44;7.78;;;4.32;;
44116;SDS011;29781;49.480;8.512;2023-04-25T14:33:10;11.00;;;5.13;;
44116;SDS011;29781;49.480;8.512;2023-04-25T14:35:36;11.40;;;4.88;;
44116;SDS011;29781;49.480;8.512;2023-04-25T14:38:02;12.57;;;4.90;;
44116;SDS011;29781;49.480;8.512;2023-04-25T14:40:27;9.65;;;4.57;;
44116;SDS011;29781;49.480;8.512;2023-04-25T14:42:53;8.85;;;4.70;;
44116;SDS011;29781;49.480;8.512;2023-04-25T14:45:18;10.57;;;4.65;;